createdAt,value
2018-07-16T00:00:02.314Z,6.80
2018-07-16T00:02:30.811Z,1.83
2018-07-16T00:04:59.188Z,1.90
2018-07-16T00:07:27.632Z,3.07
2018-07-16T00:09:56.117Z,2.23
2018-07-16T00:12:24.537Z,1.57
2018-07-16T00:14:52.859Z,2.60
2018-07-16T00:17:21.348Z,2.07
2018-07-16T00:19:49.751Z,2.13
2018-07-16T00:22:18.217Z,2.37
2018-07-16T00:24:46.609Z,2.07
2018-07-16T00:27:15.106Z,2.70
2018-07-16T00:29:43.600Z,2.43
2018-07-16T00:32:12.150Z,2.30
2018-07-16T00:34:40.549Z,2.17
2018-07-16T00:37:08.937Z,1.60
2018-07-16T00:39:37.316Z,5.33
2018-07-16T00:42:05.788Z,2.00
2018-07-16T00:44:34.163Z,2.57
2018-07-16T00:47:02.532Z,2.80
2018-07-16T00:49:30.954Z,2.40
2018-07-16T00:51:59.474Z,1.73
2018-07-16T00:54:27.859Z,1.70
2018-07-16T00:56:56.232Z,3.23
2018-07-16T00:59:24.809Z,2.57
2018-07-16T01:01:53.360Z,2.00
2018-07-16T01:04:21.734Z,6.23
2018-07-16T01:06:50.106Z,2.40
2018-07-16T01:09:18.431Z,2.60
2018-07-16T01:11:46.939Z,2.50
2018-07-16T01:14:15.490Z,3.37
2018-07-16T01:16:43.893Z,2.00
2018-07-16T01:19:12.308Z,2.97
2018-07-16T01:21:41.009Z,2.87
2018-07-16T01:24:09.353Z,2.43
2018-07-16T01:26:37.763Z,1.90
2018-07-16T01:29:06.214Z,3.10
2018-07-16T01:31:34.602Z,5.03
2018-07-16T01:34:03.013Z,2.53
2018-07-16T01:36:31.383Z,2.10
2018-07-16T01:38:59.747Z,2.30
2018-07-16T01:41:28.113Z,2.23
2018-07-16T01:43:56.633Z,3.53
2018-07-16T01:46:25.035Z,3.23
2018-07-16T01:48:53.399Z,3.20
2018-07-16T01:51:21.911Z,3.00
2018-07-16T01:53:50.283Z,5.23
2018-07-16T01:56:18.760Z,4.53
2018-07-16T01:58:47.137Z,3.13
2018-07-16T02:01:15.617Z,3.37
2018-07-16T02:03:44.012Z,4.73
2018-07-16T02:06:12.365Z,4.53
2018-07-16T02:08:40.747Z,5.07
2018-07-16T02:11:09.138Z,3.37
2018-07-16T02:13:37.699Z,17.13
2018-07-16T02:16:06.231Z,3.87
2018-07-16T02:18:34.676Z,4.60
2018-07-16T02:21:03.838Z,2.93
2018-07-16T02:23:32.395Z,4.80
2018-07-16T02:26:03.820Z,2.37
2018-07-16T02:28:32.313Z,5.27
2018-07-16T02:31:00.726Z,2.53
2018-07-16T02:33:29.222Z,2.50
2018-07-16T02:35:57.769Z,3.17
2018-07-16T02:38:26.181Z,2.80
2018-07-16T02:40:54.645Z,2.57
2018-07-16T02:43:23.136Z,3.30
2018-07-16T02:45:51.580Z,3.43
2018-07-16T02:48:19.966Z,3.30
2018-07-16T02:50:48.382Z,3.37
2018-07-16T02:53:16.468Z,3.47
2018-07-16T02:55:44.847Z,3.20
2018-07-16T02:58:13.328Z,8.00
2018-07-16T03:00:41.717Z,4.33
2018-07-16T03:03:10.125Z,24.57
2018-07-16T03:05:38.491Z,4.37
2018-07-16T03:08:06.885Z,3.13
2018-07-16T03:10:35.318Z,3.43
2018-07-16T03:13:03.381Z,6.50
2018-07-16T03:15:31.757Z,3.10
2018-07-16T03:18:00.131Z,4.00
2018-07-16T03:20:28.700Z,3.10
2018-07-16T03:22:57.124Z,3.93
2018-07-16T03:25:25.458Z,3.80
2018-07-16T03:27:53.824Z,4.10
2018-07-16T03:30:22.229Z,3.80
2018-07-16T03:32:50.646Z,4.00
2018-07-16T03:35:19.012Z,3.90
2018-07-16T03:37:47.402Z,3.57
2018-07-16T03:40:15.828Z,3.00
2018-07-16T03:42:44.348Z,3.77
2018-07-16T03:45:12.855Z,2.70
2018-07-16T03:47:41.186Z,3.30
2018-07-16T03:50:09.550Z,2.97
2018-07-16T03:52:38.038Z,2.20
2018-07-16T03:55:06.452Z,3.43
2018-07-16T03:57:35.032Z,5.80
2018-07-16T04:00:03.518Z,3.60
2018-07-16T04:02:32.036Z,4.67
2018-07-16T04:05:00.438Z,4.03
2018-07-16T04:07:29.125Z,5.27
2018-07-16T04:09:57.560Z,4.20
2018-07-16T04:12:25.898Z,3.80
2018-07-16T04:14:54.247Z,3.73
2018-07-16T04:17:22.594Z,3.47
2018-07-16T04:19:51.012Z,2.90
2018-07-16T04:22:19.447Z,3.27
2018-07-16T04:24:47.830Z,3.83
2018-07-16T04:27:16.232Z,4.07
2018-07-16T04:29:44.559Z,3.63
2018-07-16T04:32:13.000Z,3.93
2018-07-16T04:34:41.445Z,6.33
2018-07-16T04:37:09.859Z,4.50
2018-07-16T04:39:38.286Z,4.03
2018-07-16T04:42:06.358Z,4.67
2018-07-16T04:44:34.900Z,3.13
2018-07-16T04:47:03.258Z,4.60
2018-07-16T04:49:31.744Z,3.77
2018-07-16T04:52:00.128Z,3.00
2018-07-16T04:54:28.506Z,4.43
2018-07-16T04:56:56.936Z,4.40
2018-07-16T04:59:25.334Z,6.23
2018-07-16T05:01:53.699Z,3.00
2018-07-16T05:04:22.042Z,3.93
2018-07-16T05:06:50.503Z,4.87
2018-07-16T05:09:18.938Z,3.40
2018-07-16T05:11:47.528Z,3.63
2018-07-16T05:14:15.912Z,4.63
2018-07-16T05:16:44.248Z,3.40
2018-07-16T05:19:12.783Z,3.00
2018-07-16T05:21:41.312Z,9.03
2018-07-16T05:24:09.843Z,3.50
2018-07-16T05:26:38.324Z,3.30
2018-07-16T05:29:06.738Z,3.80
2018-07-16T05:31:35.460Z,4.53
2018-07-16T05:34:03.883Z,4.97
2018-07-16T05:36:32.564Z,4.17
2018-07-16T05:39:00.943Z,18.60
2018-07-16T05:41:29.304Z,4.17
2018-07-16T05:43:57.744Z,4.10
2018-07-16T05:46:27.236Z,4.17
2018-07-16T05:48:55.681Z,6.73
2018-07-16T05:51:24.254Z,6.83
2018-07-16T05:53:52.632Z,14.13
2018-07-16T05:56:21.030Z,10.37
2018-07-16T05:58:49.530Z,9.57
2018-07-16T06:01:18.103Z,6.20
2018-07-16T06:03:46.452Z,5.73
2018-07-16T06:06:15.010Z,12.93
2018-07-16T06:08:43.132Z,14.00
2018-07-16T06:11:11.495Z,7.10
2018-07-16T06:13:39.928Z,5.27
2018-07-16T06:16:08.258Z,4.97
2018-07-16T06:18:36.627Z,6.40
2018-07-16T06:21:05.282Z,5.77
2018-07-16T06:23:33.680Z,4.83
2018-07-16T06:26:02.175Z,5.20
2018-07-16T06:28:30.674Z,3.10
2018-07-16T06:30:59.041Z,6.90
2018-07-16T06:33:27.621Z,6.47
2018-07-16T06:35:56.040Z,7.23
2018-07-16T06:38:24.491Z,4.00
2018-07-16T06:40:53.003Z,5.17
2018-07-16T06:43:21.302Z,8.23
2018-07-16T06:45:49.855Z,4.37
2018-07-16T06:48:18.226Z,6.23
2018-07-16T06:50:46.789Z,4.03
2018-07-16T06:53:15.157Z,4.70
2018-07-16T06:55:43.545Z,8.90
2018-07-16T06:58:11.903Z,4.57
2018-07-16T07:00:40.327Z,5.00
2018-07-16T07:03:09.086Z,4.90
2018-07-16T07:05:37.843Z,5.00
2018-07-16T07:08:06.377Z,5.43
2018-07-16T07:10:35.025Z,5.33
2018-07-16T07:13:03.375Z,4.73
2018-07-16T07:15:31.758Z,4.10
2018-07-16T07:18:00.169Z,3.70
2018-07-16T07:20:28.555Z,5.43
2018-07-16T07:22:56.962Z,5.50
2018-07-16T07:25:25.785Z,5.20
2018-07-16T07:27:54.075Z,4.77
2018-07-16T07:30:22.123Z,6.87
2018-07-16T07:32:50.539Z,4.73
2018-07-16T07:35:18.935Z,3.97
2018-07-16T07:37:47.335Z,5.43
2018-07-16T07:40:15.848Z,4.27
2018-07-16T07:42:44.028Z,5.20
2018-07-16T07:45:12.209Z,5.80
2018-07-16T07:47:40.634Z,4.30
2018-07-16T07:50:09.249Z,5.57
2018-07-16T07:52:37.663Z,4.67
2018-07-16T07:55:06.886Z,4.37
2018-07-16T07:57:34.852Z,5.90
2018-07-16T08:00:03.872Z,4.33
2018-07-16T08:02:32.265Z,4.87
2018-07-16T08:05:00.719Z,6.53
2018-07-16T08:07:29.120Z,4.93
2018-07-16T08:09:57.459Z,7.33
2018-07-16T08:12:25.888Z,9.00
2018-07-16T08:14:54.444Z,4.10
2018-07-16T08:17:23.004Z,5.20
2018-07-16T08:19:51.410Z,6.90
2018-07-16T08:22:19.767Z,4.43
2018-07-16T08:24:48.368Z,4.13
2018-07-16T08:27:16.781Z,4.50
2018-07-16T08:29:45.190Z,16.73
2018-07-16T08:32:13.635Z,7.50
2018-07-16T08:34:42.044Z,3.47
2018-07-16T08:37:10.712Z,3.27
2018-07-16T08:39:39.177Z,5.40
2018-07-16T08:42:07.723Z,4.00
2018-07-16T08:44:36.213Z,5.03
2018-07-16T08:47:04.790Z,2.93
2018-07-16T08:49:33.226Z,3.67
2018-07-16T08:52:01.822Z,3.50
2018-07-16T08:54:30.259Z,3.60
2018-07-16T08:56:58.668Z,7.17
2018-07-16T08:59:27.136Z,4.35
2018-07-16T09:01:55.568Z,4.30
2018-07-16T09:04:24.102Z,3.10
2018-07-16T09:06:52.520Z,3.10
2018-07-16T09:09:21.109Z,2.70
2018-07-16T09:11:49.652Z,3.13
2018-07-16T09:14:18.042Z,3.53
2018-07-16T09:16:46.384Z,3.47
2018-07-16T09:19:15.050Z,2.70
2018-07-16T09:21:43.579Z,3.57
2018-07-16T09:24:11.988Z,3.40
2018-07-16T09:26:40.542Z,5.20
2018-07-16T09:29:08.989Z,5.90
2018-07-16T09:31:37.498Z,2.80
2018-07-16T09:34:05.917Z,2.47
2018-07-16T09:36:34.291Z,2.30
2018-07-16T09:39:02.883Z,3.97
2018-07-16T09:41:31.261Z,3.40
2018-07-16T09:43:59.685Z,5.40
2018-07-16T09:46:28.040Z,7.83
2018-07-16T09:48:56.495Z,2.90
2018-07-16T09:51:24.981Z,2.70
2018-07-16T09:53:53.395Z,2.27
2018-07-16T09:56:21.818Z,4.83
2018-07-16T09:58:50.413Z,3.13
2018-07-16T10:01:24.189Z,4.43
2018-07-16T10:03:52.709Z,2.40
2018-07-16T10:06:21.115Z,13.43
2018-07-16T10:08:50.351Z,1.97
2018-07-16T10:11:18.760Z,2.60
2018-07-16T10:13:47.384Z,2.67
2018-07-16T10:16:15.901Z,2.60
2018-07-16T10:18:44.312Z,2.47
2018-07-16T10:21:12.737Z,2.43
2018-07-16T10:23:41.278Z,3.10
2018-07-16T10:26:09.670Z,1.90
2018-07-16T10:28:38.072Z,5.60
2018-07-16T10:31:06.718Z,2.60
2018-07-16T10:33:35.154Z,6.27
2018-07-16T10:36:03.601Z,2.37
2018-07-16T10:38:31.992Z,9.93
2018-07-16T10:41:00.456Z,2.90
2018-07-16T10:43:29.061Z,2.10
2018-07-16T10:45:57.394Z,5.43
2018-07-16T10:48:25.843Z,6.73
2018-07-16T10:50:54.347Z,2.13
2018-07-16T10:53:22.840Z,2.50
2018-07-16T10:55:51.290Z,2.80
2018-07-16T10:58:19.718Z,2.63
2018-07-16T11:00:48.287Z,4.17
2018-07-16T11:03:16.708Z,1.97
2018-07-16T11:05:45.059Z,2.30
2018-07-16T11:08:13.432Z,3.53
2018-07-16T11:10:41.953Z,8.63
2018-07-16T11:13:10.256Z,2.00
2018-07-16T11:15:38.701Z,5.03
2018-07-16T11:18:07.069Z,2.60
2018-07-16T11:20:35.526Z,4.73
2018-07-16T11:23:03.909Z,16.63
2018-07-16T11:25:32.348Z,3.67
2018-07-16T11:28:01.003Z,11.17
2018-07-16T11:30:29.455Z,10.90
2018-07-16T11:32:57.907Z,2.63
2018-07-16T11:35:26.385Z,4.40
2018-07-16T11:37:54.748Z,7.40
2018-07-16T11:40:23.129Z,2.93
2018-07-16T11:42:51.562Z,2.60
2018-07-16T11:45:19.950Z,3.23
2018-07-16T11:47:48.407Z,2.87
2018-07-16T11:50:16.836Z,2.20
2018-07-16T11:52:45.188Z,7.13
2018-07-16T11:55:13.672Z,3.10
2018-07-16T11:57:42.108Z,5.10
2018-07-16T12:00:10.528Z,2.90
2018-07-16T12:02:38.976Z,2.63
2018-07-16T12:05:07.636Z,2.77
2018-07-16T12:07:36.126Z,1.60
2018-07-16T12:10:04.585Z,2.40
2018-07-16T12:12:33.045Z,2.70
2018-07-16T12:15:01.360Z,2.23
2018-07-16T12:17:29.688Z,2.53
2018-07-16T12:19:58.161Z,2.17
2018-07-16T12:22:26.538Z,2.23
2018-07-16T12:24:54.998Z,1.90
2018-07-16T12:27:23.628Z,2.73
2018-07-16T12:29:52.092Z,2.00
2018-07-16T12:32:20.534Z,2.20
2018-07-16T12:34:49.015Z,4.10
2018-07-16T12:37:17.398Z,1.50
2018-07-16T12:39:45.871Z,1.73
2018-07-16T12:42:14.330Z,1.73
2018-07-16T12:44:42.812Z,2.20
2018-07-16T12:47:11.332Z,2.10
2018-07-16T12:49:39.792Z,8.33
2018-07-16T12:52:08.176Z,1.83
2018-07-16T12:54:36.658Z,1.90
2018-07-16T12:57:05.140Z,4.97
2018-07-16T12:59:33.495Z,2.00
2018-07-16T13:02:01.885Z,1.80
2018-07-16T13:04:30.294Z,2.20
2018-07-16T13:06:58.692Z,1.90
2018-07-16T13:09:27.107Z,1.83
2018-07-16T13:11:55.521Z,1.63
2018-07-16T13:14:23.967Z,1.70
2018-07-16T13:16:52.527Z,2.67
2018-07-16T13:19:21.126Z,5.33
2018-07-16T13:21:49.495Z,3.23
2018-07-16T13:24:17.896Z,1.93
2018-07-16T13:26:46.312Z,2.00
2018-07-16T13:29:14.902Z,1.70
2018-07-16T13:31:43.450Z,2.40
2018-07-16T13:34:11.853Z,3.17
2018-07-16T13:36:40.276Z,2.23
2018-07-16T13:39:09.617Z,2.20
2018-07-16T13:41:38.014Z,1.60
2018-07-16T13:44:06.525Z,1.97
2018-07-16T13:46:35.275Z,2.93
2018-07-16T13:49:03.572Z,10.33
2018-07-16T13:51:32.332Z,1.43
2018-07-16T13:54:01.335Z,10.03
2018-07-16T13:56:29.771Z,1.40
2018-07-16T13:58:58.180Z,1.60
2018-07-16T14:01:26.585Z,1.40
2018-07-16T14:03:54.693Z,1.47
2018-07-16T14:06:23.038Z,1.70
2018-07-16T14:08:51.572Z,1.77
2018-07-16T14:11:19.968Z,1.70
2018-07-16T14:13:48.358Z,1.80
2018-07-16T14:16:16.754Z,1.40
2018-07-16T14:18:45.264Z,1.33
2018-07-16T14:21:13.640Z,1.37
2018-07-16T14:23:42.029Z,1.33
2018-07-16T14:26:10.614Z,1.50
2018-07-16T14:28:39.009Z,1.67
2018-07-16T14:31:07.407Z,2.00
2018-07-16T14:33:35.866Z,2.03
2018-07-16T14:36:04.443Z,1.00
2018-07-16T14:38:32.929Z,1.77
2018-07-16T14:41:01.297Z,1.60
2018-07-16T14:43:29.676Z,1.00
2018-07-16T14:45:58.082Z,2.90
2018-07-16T14:48:26.533Z,2.30
2018-07-16T14:50:54.933Z,1.90
2018-07-16T14:53:23.290Z,2.13
2018-07-16T14:55:51.791Z,2.97
2018-07-16T14:58:20.195Z,1.27
2018-07-16T15:00:48.601Z,1.87
2018-07-16T15:03:17.025Z,3.50
2018-07-16T15:05:45.404Z,1.53
2018-07-16T15:08:13.944Z,2.00
2018-07-16T15:10:42.440Z,1.70
2018-07-16T15:13:10.921Z,3.20
2018-07-16T15:15:39.344Z,2.00
2018-07-16T15:18:07.903Z,3.17
2018-07-16T15:20:36.465Z,2.43
2018-07-16T15:23:04.802Z,21.80
2018-07-16T15:25:33.190Z,13.50
2018-07-16T15:28:01.833Z,4.40
2018-07-16T15:30:30.554Z,26.53
2018-07-16T15:32:59.055Z,46.37
2018-07-16T15:35:27.517Z,31.20
2018-07-16T15:37:55.981Z,26.63
2018-07-16T15:40:24.516Z,29.37
2018-07-16T15:42:52.868Z,24.37
2018-07-16T15:45:21.352Z,43.37
2018-07-16T15:47:49.800Z,31.60
2018-07-16T15:50:18.349Z,25.00
2018-07-16T15:52:46.751Z,22.70
2018-07-16T15:55:15.265Z,13.70
2018-07-16T15:57:43.699Z,16.23
2018-07-16T16:00:12.372Z,7.33
2018-07-16T16:02:41.417Z,24.57
2018-07-16T16:05:09.835Z,17.90
2018-07-16T16:07:38.243Z,10.30
2018-07-16T16:10:06.746Z,12.97
2018-07-16T16:12:34.839Z,9.13
2018-07-16T16:15:03.258Z,7.93
2018-07-16T16:17:31.846Z,10.30
2018-07-16T16:20:00.440Z,4.87
2018-07-16T16:22:29.082Z,3.23
2018-07-16T16:24:57.543Z,3.17
2018-07-16T16:27:26.067Z,5.57
2018-07-16T16:29:54.477Z,4.00
2018-07-16T16:32:22.961Z,3.20
2018-07-16T16:34:51.513Z,2.10
2018-07-16T16:37:19.976Z,2.80
2018-07-16T16:39:48.356Z,2.77
2018-07-16T16:42:16.896Z,6.23
2018-07-16T16:44:45.308Z,4.13
2018-07-16T16:47:13.838Z,3.70
2018-07-16T16:49:42.340Z,3.13
2018-07-16T16:52:11.719Z,3.27
2018-07-16T16:54:40.262Z,10.80
2018-07-16T16:57:08.787Z,2.40
2018-07-16T16:59:37.302Z,2.50
2018-07-16T17:02:05.653Z,2.77
2018-07-16T17:04:34.140Z,3.27
2018-07-16T17:07:02.618Z,2.37
2018-07-16T17:09:30.982Z,5.67
2018-07-16T17:11:59.402Z,3.67
2018-07-16T17:14:27.754Z,2.80
2018-07-16T17:16:56.273Z,1.77
2018-07-16T17:19:24.779Z,2.60
2018-07-16T17:21:53.178Z,47.70
2018-07-16T17:24:21.670Z,24.23
2018-07-16T17:26:50.162Z,8.90
2018-07-16T17:29:18.591Z,26.63
2018-07-16T17:31:46.931Z,4.17
2018-07-16T17:34:15.393Z,4.70
2018-07-16T17:36:43.757Z,4.40
2018-07-16T17:39:12.342Z,2.70
2018-07-16T17:41:40.841Z,5.23
2018-07-16T17:44:09.462Z,4.67
2018-07-16T17:46:37.873Z,5.23
2018-07-16T17:49:06.289Z,2.17
2018-07-16T17:51:34.688Z,15.63
2018-07-16T17:54:03.166Z,2.20
2018-07-16T17:56:31.592Z,2.20
2018-07-16T17:59:00.030Z,4.90
2018-07-16T18:01:34.938Z,7.93
2018-07-16T18:04:03.023Z,5.27
2018-07-16T18:06:32.128Z,2.83
2018-07-16T18:09:00.621Z,4.53
2018-07-16T18:11:28.981Z,1.77
2018-07-16T18:13:57.383Z,1.87
2018-07-16T18:16:25.822Z,3.03
2018-07-16T18:18:54.235Z,2.30
2018-07-16T18:21:22.679Z,2.00
2018-07-16T18:23:51.230Z,1.60
2018-07-16T18:26:19.600Z,2.83
2018-07-16T18:28:48.125Z,1.70
2018-07-16T18:31:17.041Z,2.10
2018-07-16T18:33:45.561Z,1.90
2018-07-16T18:36:13.969Z,1.60
2018-07-16T18:38:42.369Z,2.93
2018-07-16T18:41:10.834Z,1.67
2018-07-16T18:43:39.577Z,2.17
2018-07-16T18:46:08.042Z,5.37
2018-07-16T18:48:36.557Z,1.60
2018-07-16T18:51:05.071Z,8.70
2018-07-16T18:53:33.573Z,7.63
2018-07-16T18:56:02.045Z,1.60
2018-07-16T18:58:30.450Z,2.13
2018-07-16T19:00:58.905Z,6.23
2018-07-16T19:03:27.508Z,1.83
2018-07-16T19:05:56.225Z,2.43
2018-07-16T19:08:24.727Z,1.17
2018-07-16T19:10:53.106Z,3.40
2018-07-16T19:13:21.508Z,1.80
2018-07-16T19:15:49.910Z,1.53
2018-07-16T19:18:18.353Z,1.33
2018-07-16T19:20:46.723Z,1.20
2018-07-16T19:23:15.145Z,1.20
2018-07-16T19:25:43.748Z,1.40
2018-07-16T19:28:12.189Z,3.80
2018-07-16T19:30:40.667Z,1.90
2018-07-16T19:33:09.135Z,1.90
2018-07-16T19:35:37.594Z,4.43
2018-07-16T19:38:06.131Z,8.23
2018-07-16T19:40:34.646Z,4.77
2018-07-16T19:43:03.116Z,4.00
2018-07-16T19:45:31.515Z,8.63
2018-07-16T19:48:00.077Z,2.93
2018-07-16T19:50:28.632Z,1.60
2018-07-16T19:52:57.054Z,1.47
2018-07-16T19:55:25.516Z,19.97
2018-07-16T19:57:54.221Z,3.33
2018-07-16T20:00:22.664Z,7.20
2018-07-16T20:02:51.134Z,1.67
2018-07-16T20:05:19.524Z,2.03
2018-07-16T20:07:47.936Z,3.40
2018-07-16T20:10:16.279Z,13.63
2018-07-16T20:12:44.718Z,8.90
2018-07-16T20:15:17.683Z,3.90
2018-07-16T20:17:46.110Z,1.30
2018-07-16T20:20:14.271Z,1.53
2018-07-16T20:22:42.621Z,2.17
2018-07-16T20:25:11.167Z,1.30
2018-07-16T20:27:39.623Z,2.40
2018-07-16T20:30:08.319Z,1.40
2018-07-16T20:32:36.721Z,2.17
2018-07-16T20:35:05.312Z,1.80
2018-07-16T20:37:33.766Z,2.43
2018-07-16T20:40:02.218Z,2.10
2018-07-16T20:42:30.657Z,1.30
2018-07-16T20:44:59.022Z,2.50
2018-07-16T20:47:27.452Z,1.73
2018-07-16T20:49:55.820Z,1.73
2018-07-16T20:52:24.333Z,1.93
2018-07-16T20:54:52.716Z,1.60
2018-07-16T20:57:21.242Z,1.60
2018-07-16T20:59:49.715Z,1.43
2018-07-16T21:02:18.381Z,1.63
2018-07-16T21:04:46.976Z,2.83
2018-07-16T21:07:15.411Z,2.07
2018-07-16T21:09:43.877Z,2.03
2018-07-16T21:12:12.219Z,2.27
2018-07-16T21:14:40.664Z,2.17
2018-07-16T21:17:09.124Z,1.70
2018-07-16T21:19:37.492Z,2.57
2018-07-16T21:22:05.957Z,1.70
2018-07-16T21:24:34.389Z,2.10
2018-07-16T21:27:02.826Z,2.40
2018-07-16T21:29:31.225Z,2.20
2018-07-16T21:31:59.729Z,1.77
2018-07-16T21:34:28.146Z,1.50
2018-07-16T21:36:56.618Z,2.00
2018-07-16T21:39:25.099Z,1.93
2018-07-16T21:41:53.571Z,2.10
2018-07-16T21:44:22.175Z,1.83
2018-07-16T21:46:50.799Z,1.80
2018-07-16T21:49:19.395Z,2.03
2018-07-16T21:51:47.795Z,2.07
2018-07-16T21:54:16.146Z,2.60
2018-07-16T21:56:44.579Z,2.50
2018-07-16T21:59:12.971Z,2.40
2018-07-16T22:01:41.544Z,1.70
2018-07-16T22:04:10.307Z,2.53
2018-07-16T22:06:38.740Z,2.30
2018-07-16T22:09:07.931Z,2.30
2018-07-16T22:11:36.364Z,1.90
2018-07-16T22:14:04.989Z,2.10
2018-07-16T22:16:33.452Z,2.10
2018-07-16T22:19:01.822Z,2.10
2018-07-16T22:21:30.207Z,2.40
2018-07-16T22:23:58.613Z,2.27
2018-07-16T22:26:27.021Z,2.10
2018-07-16T22:28:55.493Z,2.07
2018-07-16T22:31:23.920Z,2.00
2018-07-16T22:33:52.375Z,1.90
2018-07-16T22:36:20.744Z,2.03
2018-07-16T22:38:49.377Z,2.30
2018-07-16T22:41:17.809Z,1.70
2018-07-16T22:43:46.199Z,2.73
2018-07-16T22:46:14.556Z,2.30
2018-07-16T22:48:43.023Z,2.30
2018-07-16T22:51:11.456Z,2.30
2018-07-16T22:53:39.863Z,1.93
2018-07-16T22:56:08.319Z,5.63
2018-07-16T22:58:36.698Z,2.67
2018-07-16T23:01:05.040Z,3.93
2018-07-16T23:03:33.075Z,2.03
2018-07-16T23:06:01.495Z,2.60
2018-07-16T23:08:29.850Z,2.13
2018-07-16T23:10:58.201Z,2.77
2018-07-16T23:13:26.581Z,2.60
2018-07-16T23:15:54.968Z,2.83
2018-07-16T23:18:23.363Z,1.83
2018-07-16T23:20:51.835Z,5.47
2018-07-16T23:23:20.215Z,2.13
2018-07-16T23:25:48.614Z,2.93
2018-07-16T23:28:16.999Z,3.03
2018-07-16T23:30:45.575Z,2.10
2018-07-16T23:33:13.983Z,2.03
2018-07-16T23:35:42.402Z,3.27
2018-07-16T23:38:10.835Z,3.30
2018-07-16T23:40:39.263Z,2.27
2018-07-16T23:43:07.683Z,3.47
2018-07-16T23:45:36.148Z,3.27
2018-07-16T23:48:04.473Z,2.60
2018-07-16T23:50:32.839Z,2.87
2018-07-16T23:53:01.264Z,3.67
2018-07-16T23:55:29.707Z,3.60
2018-07-16T23:57:58.125Z,2.30
